sensor_id;sensor_type;location;lat;lon;timestamp;temperature;humidity
10453;DHT22;5274;51.992;8.518;2022-11-03T00:00:24;8.30;99.90
10453;DHT22;5274;51.992;8.518;2022-11-03T00:02:50;8.20;99.90
10453;DHT22;5274;51.992;8.518;2022-11-03T00:05:15;8.30;99.90
10453;DHT22;5274;51.992;8.518;2022-11-03T00:08:01;8.30;99.90
10453;DHT22;5274;51.992;8.518;2022-11-03T00:10:27;8.30;99.90
10453;DHT22;5274;51.992;8.518;2022-11-03T00:12:53;10.10;99.90
10453;DHT22;5274;51.992;8.518;2022-11-03T00:15:18;8.30;99.90
10453;DHT22;5274;51.992;8.518;2022-11-03T00:17:45;8.40;99.90
10453;DHT22;5274;51.992;8.518;2022-11-03T00:20:11;8.40;99.90
10453;DHT22;5274;51.992;8.518;2022-11-03T00:22:36;8.40;99.90
10453;DHT22;5274;51.992;8.518;2022-11-03T00:25:02;8.50;99.90
10453;DHT22;5274;51.992;8.518;2022-11-03T00:27:28;8.50;99.90
10453;DHT22;5274;51.992;8.518;2022-11-03T00:29:53;8.60;99.90
10453;DHT22;5274;51.992;8.518;2022-11-03T00:32:19;8.60;99.90
10453;DHT22;5274;51.992;8.518;2022-11-03T00:34:44;8.60;99.90
10453;DHT22;5274;51.992;8.518;2022-11-03T00:37:10;8.60;99.90
10453;DHT22;5274;51.992;8.518;2022-11-03T00:39:35;8.60;99.90
10453;DHT22;5274;51.992;8.518;2022-11-03T00:42:01;8.60;99.90
10453;DHT22;5274;51.992;8.518;2022-11-03T00:44:26;8.70;99.90
10453;DHT22;5274;51.992;8.518;2022-11-03T00:46:52;10.00;99.90
10453;DHT22;5274;51.992;8.518;2022-11-03T00:49:17;8.70;99.90
10453;DHT22;5274;51.992;8.518;2022-11-03T00:51:43;8.70;99.90
10453;DHT22;5274;51.992;8.518;2022-11-03T00:54:08;8.70;99.90
10453;DHT22;5274;51.992;8.518;2022-11-03T00:56:39;8.70;99.90
10453;DHT22;5274;51.992;8.518;2022-11-03T00:59:06;8.70;99.90
10453;DHT22;5274;51.992;8.518;2022-11-03T01:01:37;8.70;99.90
10453;DHT22;5274;51.992;8.518;2022-11-03T01:04:04;8.70;99.90
10453;DHT22;5274;51.992;8.518;2022-11-03T01:06:50;8.70;99.90
10453;DHT22;5274;51.992;8.518;2022-11-03T01:09:25;8.80;99.90
10453;DHT22;5274;51.992;8.518;2022-11-03T01:11:57;8.80;99.90
10453;DHT22;5274;51.992;8.518;2022-11-03T01:14:25;8.80;99.90
10453;DHT22;5274;51.992;8.518;2022-11-03T01:16:51;8.80;99.90
10453;DHT22;5274;51.992;8.518;2022-11-03T01:19:17;8.80;99.90
10453;DHT22;5274;51.992;8.518;2022-11-03T01:21:43;8.70;99.90
10453;DHT22;5274;51.992;8.518;2022-11-03T01:24:09;8.70;99.90
10453;DHT22;5274;51.992;8.518;2022-11-03T01:26:34;8.70;99.90
10453;DHT22;5274;51.992;8.518;2022-11-03T01:29:00;8.70;99.90
10453;DHT22;5274;51.992;8.518;2022-11-03T01:31:26;8.60;99.90
10453;DHT22;5274;51.992;8.518;2022-11-03T01:33:53;8.70;99.90
10453;DHT22;5274;51.992;8.518;2022-11-03T01:36:20;8.70;99.90
10453;DHT22;5274;51.992;8.518;2022-11-03T01:38:45;8.60;99.90
10453;DHT22;5274;51.992;8.518;2022-11-03T01:41:17;8.60;99.90
10453;DHT22;5274;51.992;8.518;2022-11-03T01:43:43;8.60;99.90
10453;DHT22;5274;51.992;8.518;2022-11-03T01:46:26;8.50;99.90
10453;DHT22;5274;51.992;8.518;2022-11-03T01:49:03;8.50;99.90
10453;DHT22;5274;51.992;8.518;2022-11-03T01:51:32;8.50;99.90
10453;DHT22;5274;51.992;8.518;2022-11-03T01:54:00;8.50;99.90
10453;DHT22;5274;51.992;8.518;2022-11-03T01:56:29;8.50;99.90
10453;DHT22;5274;51.992;8.518;2022-11-03T01:58:57;8.40;99.90
10453;DHT22;5274;51.992;8.518;2022-11-03T02:01:22;8.40;99.90
10453;DHT22;5274;51.992;8.518;2022-11-03T02:03:55;8.30;99.90
10453;DHT22;5274;51.992;8.518;2022-11-03T02:06:24;8.30;99.90
10453;DHT22;5274;51.992;8.518;2022-11-03T02:08:55;8.30;99.90
10453;DHT22;5274;51.992;8.518;2022-11-03T02:11:22;8.30;99.90
10453;DHT22;5274;51.992;8.518;2022-11-03T02:14:14;8.30;99.90
10453;DHT22;5274;51.992;8.518;2022-11-03T02:16:42;8.30;99.90
10453;DHT22;5274;51.992;8.518;2022-11-03T02:19:19;8.30;99.90
10453;DHT22;5274;51.992;8.518;2022-11-03T02:24:47;8.30;99.90
10453;DHT22;5274;51.992;8.518;2022-11-03T02:27:14;8.30;99.90
10453;DHT22;5274;51.992;8.518;2022-11-03T02:29:39;8.30;99.90
10453;DHT22;5274;51.992;8.518;2022-11-03T02:32:22;8.40;99.90
10453;DHT22;5274;51.992;8.518;2022-11-03T02:37:26;8.40;99.90
10453;DHT22;5274;51.992;8.518;2022-11-03T02:39:56;8.40;99.90
10453;DHT22;5274;51.992;8.518;2022-11-03T02:42:23;8.40;99.90
10453;DHT22;5274;51.992;8.518;2022-11-03T02:44:50;8.40;99.90
10453;DHT22;5274;51.992;8.518;2022-11-03T02:47:16;8.40;99.90
10453;DHT22;5274;51.992;8.518;2022-11-03T02:49:52;8.40;99.90
10453;DHT22;5274;51.992;8.518;2022-11-03T02:52:43;8.40;99.90
10453;DHT22;5274;51.992;8.518;2022-11-03T03:00:54;8.60;99.90
10453;DHT22;5274;51.992;8.518;2022-11-03T03:03:30;8.70;99.90
10453;DHT22;5274;51.992;8.518;2022-11-03T03:06:07;8.60;99.90
10453;DHT22;5274;51.992;8.518;2022-11-03T03:08:35;8.60;99.90
10453;DHT22;5274;51.992;8.518;2022-11-03T03:11:04;8.60;99.90
10453;DHT22;5274;51.992;8.518;2022-11-03T03:13:30;8.60;99.90
10453;DHT22;5274;51.992;8.518;2022-11-03T03:16:13;8.60;99.90
10453;DHT22;5274;51.992;8.518;2022-11-03T03:18:48;8.70;99.90
10453;DHT22;5274;51.992;8.518;2022-11-03T03:21:20;8.70;99.90
10453;DHT22;5274;51.992;8.518;2022-11-03T03:23:56;8.70;99.90
10453;DHT22;5274;51.992;8.518;2022-11-03T03:26:23;8.60;99.90
10453;DHT22;5274;51.992;8.518;2022-11-03T03:28:56;8.60;99.90
10453;DHT22;5274;51.992;8.518;2022-11-03T03:31:26;8.60;99.90
10453;DHT22;5274;51.992;8.518;2022-11-03T03:33:53;8.60;99.90
10453;DHT22;5274;51.992;8.518;2022-11-03T03:36:23;8.60;99.90
10453;DHT22;5274;51.992;8.518;2022-11-03T03:38:54;8.60;1.00
10453;DHT22;5274;51.992;8.518;2022-11-03T03:41:21;8.60;1.00
10453;DHT22;5274;51.992;8.518;2022-11-03T03:43:56;8.60;1.00
10453;DHT22;5274;51.992;8.518;2022-11-03T03:46:28;8.70;1.00
10453;DHT22;5274;51.992;8.518;2022-11-03T03:48:56;8.70;1.00
10453;DHT22;5274;51.992;8.518;2022-11-03T03:51:24;8.70;1.00
10453;DHT22;5274;51.992;8.518;2022-11-03T03:53:51;8.60;1.00
10453;DHT22;5274;51.992;8.518;2022-11-03T03:56:29;8.60;1.00
10453;DHT22;5274;51.992;8.518;2022-11-03T03:58:55;8.60;1.00
10453;DHT22;5274;51.992;8.518;2022-11-03T04:01:21;8.70;1.00
10453;DHT22;5274;51.992;8.518;2022-11-03T04:03:47;8.60;1.00
10453;DHT22;5274;51.992;8.518;2022-11-03T04:06:12;8.60;1.00
10453;DHT22;5274;51.992;8.518;2022-11-03T04:08:38;8.60;1.00
10453;DHT22;5274;51.992;8.518;2022-11-03T04:11:03;8.70;1.00
10453;DHT22;5274;51.992;8.518;2022-11-03T04:13:47;8.50;1.00
10453;DHT22;5274;51.992;8.518;2022-11-03T04:16:31;8.60;1.00
10453;DHT22;5274;51.992;8.518;2022-11-03T04:19:15;8.50;1.00
10453;DHT22;5274;51.992;8.518;2022-11-03T04:21:59;8.50;1.00
10453;DHT22;5274;51.992;8.518;2022-11-03T04:24:40;8.50;1.00
10453;DHT22;5274;51.992;8.518;2022-11-03T04:27:34;8.50;1.00
10453;DHT22;5274;51.992;8.518;2022-11-03T04:30:12;8.50;1.00
10453;DHT22;5274;51.992;8.518;2022-11-03T04:32:39;8.50;1.00
10453;DHT22;5274;51.992;8.518;2022-11-03T04:35:24;8.50;1.00
10453;DHT22;5274;51.992;8.518;2022-11-03T04:38:02;8.60;1.00
10453;DHT22;5274;51.992;8.518;2022-11-03T04:40:29;8.70;1.00
10453;DHT22;5274;51.992;8.518;2022-11-03T04:42:55;8.50;1.00
10453;DHT22;5274;51.992;8.518;2022-11-03T04:45:27;8.50;1.00
10453;DHT22;5274;51.992;8.518;2022-11-03T04:47:53;8.50;1.00
10453;DHT22;5274;51.992;8.518;2022-11-03T04:50:21;8.40;1.00
10453;DHT22;5274;51.992;8.518;2022-11-03T04:52:50;8.40;1.00
10453;DHT22;5274;51.992;8.518;2022-11-03T04:55:19;8.50;1.00
10453;DHT22;5274;51.992;8.518;2022-11-03T04:57:45;8.40;1.00
10453;DHT22;5274;51.992;8.518;2022-11-03T05:00:18;8.40;1.00
10453;DHT22;5274;51.992;8.518;2022-11-03T05:02:45;8.40;1.00
10453;DHT22;5274;51.992;8.518;2022-11-03T05:05:23;8.50;1.00
10453;DHT22;5274;51.992;8.518;2022-11-03T05:07:52;8.50;1.00
10453;DHT22;5274;51.992;8.518;2022-11-03T05:10:20;8.40;1.00
10453;DHT22;5274;51.992;8.518;2022-11-03T05:12:48;8.40;1.00
10453;DHT22;5274;51.992;8.518;2022-11-03T05:18:10;8.50;1.00
10453;DHT22;5274;51.992;8.518;2022-11-03T05:20:48;8.40;1.00
10453;DHT22;5274;51.992;8.518;2022-11-03T05:23:15;8.50;1.00
10453;DHT22;5274;51.992;8.518;2022-11-03T05:25:42;8.50;1.00
10453;DHT22;5274;51.992;8.518;2022-11-03T05:28:23;8.50;1.00
10453;DHT22;5274;51.992;8.518;2022-11-03T05:30:49;8.50;1.00
10453;DHT22;5274;51.992;8.518;2022-11-03T05:33:28;8.60;1.00
10453;DHT22;5274;51.992;8.518;2022-11-03T05:35:59;8.70;1.00
10453;DHT22;5274;51.992;8.518;2022-11-03T05:38:29;8.60;1.00
10453;DHT22;5274;51.992;8.518;2022-11-03T05:40:55;8.60;1.00
10453;DHT22;5274;51.992;8.518;2022-11-03T05:43:21;8.60;1.00
10453;DHT22;5274;51.992;8.518;2022-11-03T05:45:49;8.50;1.00
10453;DHT22;5274;51.992;8.518;2022-11-03T05:48:28;8.50;1.00
10453;DHT22;5274;51.992;8.518;2022-11-03T05:50:55;8.50;1.00
10453;DHT22;5274;51.992;8.518;2022-11-03T05:53:34;8.50;1.00
10453;DHT22;5274;51.992;8.518;2022-11-03T05:56:03;8.50;1.00
10453;DHT22;5274;51.992;8.518;2022-11-03T05:58:34;8.50;1.00
10453;DHT22;5274;51.992;8.518;2022-11-03T06:01:02;8.40;1.00
10453;DHT22;5274;51.992;8.518;2022-11-03T06:03:32;8.40;1.00
10453;DHT22;5274;51.992;8.518;2022-11-03T06:05:59;8.50;1.00
10453;DHT22;5274;51.992;8.518;2022-11-03T06:08:35;8.40;1.00
10453;DHT22;5274;51.992;8.518;2022-11-03T06:11:02;8.50;1.00
10453;DHT22;5274;51.992;8.518;2022-11-03T06:13:36;8.50;1.00
10453;DHT22;5274;51.992;8.518;2022-11-03T06:16:05;8.50;1.00
10453;DHT22;5274;51.992;8.518;2022-11-03T06:18:36;8.50;1.00
10453;DHT22;5274;51.992;8.518;2022-11-03T06:21:07;8.50;1.00
10453;DHT22;5274;51.992;8.518;2022-11-03T06:23:35;8.50;1.00
10453;DHT22;5274;51.992;8.518;2022-11-03T06:26:01;8.50;1.00
10453;DHT22;5274;51.992;8.518;2022-11-03T06:28:34;8.50;1.00
10453;DHT22;5274;51.992;8.518;2022-11-03T06:31:03;8.50;1.00
10453;DHT22;5274;51.992;8.518;2022-11-03T06:33:33;8.50;1.00
10453;DHT22;5274;51.992;8.518;2022-11-03T06:36:10;8.50;1.00
10453;DHT22;5274;51.992;8.518;2022-11-03T06:38:37;8.50;1.00
10453;DHT22;5274;51.992;8.518;2022-11-03T06:41:03;8.50;1.00
10453;DHT22;5274;51.992;8.518;2022-11-03T06:43:38;8.50;1.00
10453;DHT22;5274;51.992;8.518;2022-11-03T06:46:21;8.50;1.00
10453;DHT22;5274;51.992;8.518;2022-11-03T06:48:48;8.50;1.00
10453;DHT22;5274;51.992;8.518;2022-11-03T06:51:19;8.60;1.00
10453;DHT22;5274;51.992;8.518;2022-11-03T06:53:47;8.60;1.00
10453;DHT22;5274;51.992;8.518;2022-11-03T06:56:20;8.70;1.00
10453;DHT22;5274;51.992;8.518;2022-11-03T06:58:47;8.70;1.00
10453;DHT22;5274;51.992;8.518;2022-11-03T07:01:15;8.70;1.00
10453;DHT22;5274;51.992;8.518;2022-11-03T07:03:43;8.80;1.00
10453;DHT22;5274;51.992;8.518;2022-11-03T07:06:28;8.90;1.00
10453;DHT22;5274;51.992;8.518;2022-11-03T07:08:58;9.00;1.00
10453;DHT22;5274;51.992;8.518;2022-11-03T07:11:26;9.10;1.00
10453;DHT22;5274;51.992;8.518;2022-11-03T07:13:55;9.10;1.00
10453;DHT22;5274;51.992;8.518;2022-11-03T07:19:12;9.20;1.00
10453;DHT22;5274;51.992;8.518;2022-11-03T07:21:49;9.30;99.90
10453;DHT22;5274;51.992;8.518;2022-11-03T07:24:17;9.40;99.90
10453;DHT22;5274;51.992;8.518;2022-11-03T07:26:44;9.40;99.90
10453;DHT22;5274;51.992;8.518;2022-11-03T07:29:18;9.40;99.90
10453;DHT22;5274;51.992;8.518;2022-11-03T07:31:45;9.50;99.90
10453;DHT22;5274;51.992;8.518;2022-11-03T07:34:16;9.50;99.90
10453;DHT22;5274;51.992;8.518;2022-11-03T07:36:43;9.50;99.90
10453;DHT22;5274;51.992;8.518;2022-11-03T07:39:14;9.60;99.90
10453;DHT22;5274;51.992;8.518;2022-11-03T07:41:40;9.60;99.90
10453;DHT22;5274;51.992;8.518;2022-11-03T07:44:15;9.70;99.90
10453;DHT22;5274;51.992;8.518;2022-11-03T07:46:41;9.70;99.90
10453;DHT22;5274;51.992;8.518;2022-11-03T07:49:17;9.80;99.90
10453;DHT22;5274;51.992;8.518;2022-11-03T07:51:44;9.90;99.90
10453;DHT22;5274;51.992;8.518;2022-11-03T07:54:21;9.90;99.90
10453;DHT22;5274;51.992;8.518;2022-11-03T07:57:30;10.00;99.90
10453;DHT22;5274;51.992;8.518;2022-11-03T07:59:43;10.10;99.90
10453;DHT22;5274;51.992;8.518;2022-11-03T08:04:57;10.20;99.90
10453;DHT22;5274;51.992;8.518;2022-11-03T08:07:25;10.30;99.90
10453;DHT22;5274;51.992;8.518;2022-11-03T08:09:54;10.40;99.90
10453;DHT22;5274;51.992;8.518;2022-11-03T08:12:20;10.40;99.90
10453;DHT22;5274;51.992;8.518;2022-11-03T08:14:46;10.50;99.90
10453;DHT22;5274;51.992;8.518;2022-11-03T08:17:11;10.50;99.90
10453;DHT22;5274;51.992;8.518;2022-11-03T08:19:37;10.60;99.90
10453;DHT22;5274;51.992;8.518;2022-11-03T08:22:02;10.70;99.90
10453;DHT22;5274;51.992;8.518;2022-11-03T08:24:28;10.70;99.90
10453;DHT22;5274;51.992;8.518;2022-11-03T08:26:53;10.80;99.90
10453;DHT22;5274;51.992;8.518;2022-11-03T08:29:19;10.90;99.90
10453;DHT22;5274;51.992;8.518;2022-11-03T08:31:45;11.00;99.90
10453;DHT22;5274;51.992;8.518;2022-11-03T08:34:11;11.00;99.90
10453;DHT22;5274;51.992;8.518;2022-11-03T08:36:36;11.10;99.90
10453;DHT22;5274;51.992;8.518;2022-11-03T08:39:03;11.20;99.90
10453;DHT22;5274;51.992;8.518;2022-11-03T08:41:29;11.20;99.90
10453;DHT22;5274;51.992;8.518;2022-11-03T08:43:55;11.30;99.90
10453;DHT22;5274;51.992;8.518;2022-11-03T08:46:20;11.40;99.90
10453;DHT22;5274;51.992;8.518;2022-11-03T08:48:46;11.50;99.90
10453;DHT22;5274;51.992;8.518;2022-11-03T08:51:12;11.50;99.90
10453;DHT22;5274;51.992;8.518;2022-11-03T08:53:38;11.60;99.90
10453;DHT22;5274;51.992;8.518;2022-11-03T08:56:05;11.60;99.90
10453;DHT22;5274;51.992;8.518;2022-11-03T08:58:31;11.60;99.90
10453;DHT22;5274;51.992;8.518;2022-11-03T09:00:57;11.60;99.90
10453;DHT22;5274;51.992;8.518;2022-11-03T09:03:22;11.70;99.90
10453;DHT22;5274;51.992;8.518;2022-11-03T09:05:48;11.80;99.90
10453;DHT22;5274;51.992;8.518;2022-11-03T09:08:14;11.80;99.90
10453;DHT22;5274;51.992;8.518;2022-11-03T09:10:39;11.90;99.90
10453;DHT22;5274;51.992;8.518;2022-11-03T09:13:05;12.00;99.90
10453;DHT22;5274;51.992;8.518;2022-11-03T09:15:30;12.10;99.90
10453;DHT22;5274;51.992;8.518;2022-11-03T09:17:56;12.20;99.90
10453;DHT22;5274;51.992;8.518;2022-11-03T09:20:22;12.30;96.30
10453;DHT22;5274;51.992;8.518;2022-11-03T09:22:47;12.40;99.10
10453;DHT22;5274;51.992;8.518;2022-11-03T09:25:13;12.50;86.00
10453;DHT22;5274;51.992;8.518;2022-11-03T09:27:38;12.60;46.50
10453;DHT22;5274;51.992;8.518;2022-11-03T09:30:05;12.60;58.50
10453;DHT22;5274;51.992;8.518;2022-11-03T09:32:31;12.70;57.20
10453;DHT22;5274;51.992;8.518;2022-11-03T09:34:57;12.70;42.80
10453;DHT22;5274;51.992;8.518;2022-11-03T09:37:23;12.80;42.50
10453;DHT22;5274;51.992;8.518;2022-11-03T09:39:48;12.90;45.50
10453;DHT22;5274;51.992;8.518;2022-11-03T09:42:14;12.90;23.90
10453;DHT22;5274;51.992;8.518;2022-11-03T09:44:41;12.90;20.40
10453;DHT22;5274;51.992;8.518;2022-11-03T09:47:10;13.00;14.10
10453;DHT22;5274;51.992;8.518;2022-11-03T09:49:38;13.10;21.60
10453;DHT22;5274;51.992;8.518;2022-11-03T09:52:04;13.20;13.00
10453;DHT22;5274;51.992;8.518;2022-11-03T09:54:30;13.30;1.00
10453;DHT22;5274;51.992;8.518;2022-11-03T09:56:57;13.40;1.00
10453;DHT22;5274;51.992;8.518;2022-11-03T09:59:29;13.40;1.00
10453;DHT22;5274;51.992;8.518;2022-11-03T10:01:55;13.40;1.00
10453;DHT22;5274;51.992;8.518;2022-11-03T10:04:25;13.40;1.00
10453;DHT22;5274;51.992;8.518;2022-11-03T10:06:53;13.50;1.00
10453;DHT22;5274;51.992;8.518;2022-11-03T10:09:19;13.50;1.00
10453;DHT22;5274;51.992;8.518;2022-11-03T10:11:45;13.60;1.00
10453;DHT22;5274;51.992;8.518;2022-11-03T10:14:15;13.70;1.00
10453;DHT22;5274;51.992;8.518;2022-11-03T10:16:42;13.80;1.00
10453;DHT22;5274;51.992;8.518;2022-11-03T10:19:13;13.90;1.00
10453;DHT22;5274;51.992;8.518;2022-11-03T10:21:40;13.90;1.00
10453;DHT22;5274;51.992;8.518;2022-11-03T10:24:10;13.90;1.00
10453;DHT22;5274;51.992;8.518;2022-11-03T10:26:51;14.00;1.00
10453;DHT22;5274;51.992;8.518;2022-11-03T10:29:18;14.00;1.00
10453;DHT22;5274;51.992;8.518;2022-11-03T10:31:48;13.90;1.00
10453;DHT22;5274;51.992;8.518;2022-11-03T10:34:44;14.00;1.00
10453;DHT22;5274;51.992;8.518;2022-11-03T10:37:14;14.00;1.00
10453;DHT22;5274;51.992;8.518;2022-11-03T10:39:45;14.00;1.00
10453;DHT22;5274;51.992;8.518;2022-11-03T10:44:43;14.00;1.00
10453;DHT22;5274;51.992;8.518;2022-11-03T10:47:21;14.00;1.00
10453;DHT22;5274;51.992;8.518;2022-11-03T10:49:47;14.10;1.00
10453;DHT22;5274;51.992;8.518;2022-11-03T10:52:24;14.10;1.00
10453;DHT22;5274;51.992;8.518;2022-11-03T10:54:53;14.20;1.00
10453;DHT22;5274;51.992;8.518;2022-11-03T10:57:19;14.20;1.00
10453;DHT22;5274;51.992;8.518;2022-11-03T10:59:47;14.20;1.00
10453;DHT22;5274;51.992;8.518;2022-11-03T11:02:20;14.30;1.00
10453;DHT22;5274;51.992;8.518;2022-11-03T11:04:47;14.40;1.00
10453;DHT22;5274;51.992;8.518;2022-11-03T11:07:19;14.40;1.00
10453;DHT22;5274;51.992;8.518;2022-11-03T11:09:45;14.50;1.00
10453;DHT22;5274;51.992;8.518;2022-11-03T11:12:24;14.60;1.00
10453;DHT22;5274;51.992;8.518;2022-11-03T11:15:03;14.80;1.00
10453;DHT22;5274;51.992;8.518;2022-11-03T11:17:46;15.00;1.00
10453;DHT22;5274;51.992;8.518;2022-11-03T11:22:43;15.10;1.00
10453;DHT22;5274;51.992;8.518;2022-11-03T11:25:09;15.00;1.00
10453;DHT22;5274;51.992;8.518;2022-11-03T11:32:59;14.80;1.00
10453;DHT22;5274;51.992;8.518;2022-11-03T11:37:52;14.60;1.00
10453;DHT22;5274;51.992;8.518;2022-11-03T11:48:30;14.50;1.00
10453;DHT22;5274;51.992;8.518;2022-11-03T11:50:56;14.40;1.00
10453;DHT22;5274;51.992;8.518;2022-11-03T11:53:23;14.40;1.00
10453;DHT22;5274;51.992;8.518;2022-11-03T11:55:57;14.50;1.00
10453;DHT22;5274;51.992;8.518;2022-11-03T12:01:03;14.40;1.00
10453;DHT22;5274;51.992;8.518;2022-11-03T12:03:37;14.50;1.00
10453;DHT22;5274;51.992;8.518;2022-11-03T12:06:04;14.50;1.00
10453;DHT22;5274;51.992;8.518;2022-11-03T12:08:30;14.50;1.00
10453;DHT22;5274;51.992;8.518;2022-11-03T12:10:59;14.50;1.00
10453;DHT22;5274;51.992;8.518;2022-11-03T12:13:47;14.50;1.00
10453;DHT22;5274;51.992;8.518;2022-11-03T12:16:28;14.50;1.00
10453;DHT22;5274;51.992;8.518;2022-11-03T12:18:54;14.60;1.00
10453;DHT22;5274;51.992;8.518;2022-11-03T12:21:46;14.50;1.00
10453;DHT22;5274;51.992;8.518;2022-11-03T12:25:05;14.50;1.00
10453;DHT22;5274;51.992;8.518;2022-11-03T12:30:12;14.40;1.00
10453;DHT22;5274;51.992;8.518;2022-11-03T12:32:38;14.40;1.00
10453;DHT22;5274;51.992;8.518;2022-11-03T12:35:06;14.40;1.00
10453;DHT22;5274;51.992;8.518;2022-11-03T12:37:32;14.30;1.00
10453;DHT22;5274;51.992;8.518;2022-11-03T12:39:58;14.20;1.00
10453;DHT22;5274;51.992;8.518;2022-11-03T12:42:24;14.20;1.00
10453;DHT22;5274;51.992;8.518;2022-11-03T12:44:50;14.20;1.00
10453;DHT22;5274;51.992;8.518;2022-11-03T12:47:15;14.20;1.00
10453;DHT22;5274;51.992;8.518;2022-11-03T12:49:41;14.30;1.00
10453;DHT22;5274;51.992;8.518;2022-11-03T12:52:06;14.20;1.00
10453;DHT22;5274;51.992;8.518;2022-11-03T12:54:32;14.20;1.00
10453;DHT22;5274;51.992;8.518;2022-11-03T12:56:58;14.10;1.00
10453;DHT22;5274;51.992;8.518;2022-11-03T12:59:24;14.10;1.00
10453;DHT22;5274;51.992;8.518;2022-11-03T13:01:50;14.20;1.00
10453;DHT22;5274;51.992;8.518;2022-11-03T13:04:15;14.50;1.00
10453;DHT22;5274;51.992;8.518;2022-11-03T13:06:41;15.30;1.00
10453;DHT22;5274;51.992;8.518;2022-11-03T13:09:06;16.20;1.00
10453;DHT22;5274;51.992;8.518;2022-11-03T13:11:31;16.70;1.00
10453;DHT22;5274;51.992;8.518;2022-11-03T13:14:16;16.60;1.00
10453;DHT22;5274;51.992;8.518;2022-11-03T13:16:41;16.50;1.00
10453;DHT22;5274;51.992;8.518;2022-11-03T13:19:07;15.20;1.00
10453;DHT22;5274;51.992;8.518;2022-11-03T13:21:35;15.90;1.00
10453;DHT22;5274;51.992;8.518;2022-11-03T13:24:00;15.50;1.00
10453;DHT22;5274;51.992;8.518;2022-11-03T13:26:26;15.30;1.00
10453;DHT22;5274;51.992;8.518;2022-11-03T13:28:51;15.50;1.00
10453;DHT22;5274;51.992;8.518;2022-11-03T13:31:17;15.40;1.00
10453;DHT22;5274;51.992;8.518;2022-11-03T13:33:42;15.40;1.00
10453;DHT22;5274;51.992;8.518;2022-11-03T13:36:08;15.40;1.00
10453;DHT22;5274;51.992;8.518;2022-11-03T13:38:33;15.30;1.00
10453;DHT22;5274;51.992;8.518;2022-11-03T13:40:59;15.10;1.00
10453;DHT22;5274;51.992;8.518;2022-11-03T13:43:24;15.00;1.00
10453;DHT22;5274;51.992;8.518;2022-11-03T13:45:50;14.80;1.00
10453;DHT22;5274;51.992;8.518;2022-11-03T13:48:17;14.60;1.00
10453;DHT22;5274;51.992;8.518;2022-11-03T13:50:44;14.60;1.00
10453;DHT22;5274;51.992;8.518;2022-11-03T13:53:09;14.80;1.00
10453;DHT22;5274;51.992;8.518;2022-11-03T13:55:35;15.00;1.00
10453;DHT22;5274;51.992;8.518;2022-11-03T13:58:00;14.90;1.00
10453;DHT22;5274;51.992;8.518;2022-11-03T14:00:26;14.90;1.00
10453;DHT22;5274;51.992;8.518;2022-11-03T14:02:51;14.80;1.00
10453;DHT22;5274;51.992;8.518;2022-11-03T14:05:17;14.70;1.00
10453;DHT22;5274;51.992;8.518;2022-11-03T14:07:42;14.50;1.00
10453;DHT22;5274;51.992;8.518;2022-11-03T14:10:08;14.50;1.00
10453;DHT22;5274;51.992;8.518;2022-11-03T14:12:34;14.40;1.00
10453;DHT22;5274;51.992;8.518;2022-11-03T14:15:03;14.30;1.00
10453;DHT22;5274;51.992;8.518;2022-11-03T14:17:29;14.20;1.00
10453;DHT22;5274;51.992;8.518;2022-11-03T14:19:55;14.20;1.00
10453;DHT22;5274;51.992;8.518;2022-11-03T14:22:21;14.10;1.00
10453;DHT22;5274;51.992;8.518;2022-11-03T14:24:49;14.10;1.00
10453;DHT22;5274;51.992;8.518;2022-11-03T14:27:15;14.10;1.00
10453;DHT22;5274;51.992;8.518;2022-11-03T14:29:44;13.90;1.00
10453;DHT22;5274;51.992;8.518;2022-11-03T14:32:14;13.80;1.00
10453;DHT22;5274;51.992;8.518;2022-11-03T14:34:39;13.80;1.00
10453;DHT22;5274;51.992;8.518;2022-11-03T14:37:05;13.80;1.00
10453;DHT22;5274;51.992;8.518;2022-11-03T14:39:33;13.70;1.00
10453;DHT22;5274;51.992;8.518;2022-11-03T14:41:58;13.70;1.00
10453;DHT22;5274;51.992;8.518;2022-11-03T14:44:37;13.60;1.00
10453;DHT22;5274;51.992;8.518;2022-11-03T14:47:05;13.60;1.00
10453;DHT22;5274;51.992;8.518;2022-11-03T14:49:32;13.60;1.00
10453;DHT22;5274;51.992;8.518;2022-11-03T14:51:59;13.60;1.00
10453;DHT22;5274;51.992;8.518;2022-11-03T14:54:26;13.50;4.90
10453;DHT22;5274;51.992;8.518;2022-11-03T14:56:52;13.40;10.60
10453;DHT22;5274;51.992;8.518;2022-11-03T14:59:18;13.40;20.70
10453;DHT22;5274;51.992;8.518;2022-11-03T15:01:44;13.40;22.10
10453;DHT22;5274;51.992;8.518;2022-11-03T15:04:10;13.30;28.70
10453;DHT22;5274;51.992;8.518;2022-11-03T15:06:37;13.30;35.00
10453;DHT22;5274;51.992;8.518;2022-11-03T15:09:03;13.20;49.00
10453;DHT22;5274;51.992;8.518;2022-11-03T15:11:29;13.10;54.50
10453;DHT22;5274;51.992;8.518;2022-11-03T15:13:54;13.10;75.90
10453;DHT22;5274;51.992;8.518;2022-11-03T15:16:21;13.10;73.00
10453;DHT22;5274;51.992;8.518;2022-11-03T15:18:47;13.10;66.90
10453;DHT22;5274;51.992;8.518;2022-11-03T15:21:12;13.10;61.30
10453;DHT22;5274;51.992;8.518;2022-11-03T15:23:38;13.10;63.10
10453;DHT22;5274;51.992;8.518;2022-11-03T15:26:04;13.10;68.30
10453;DHT22;5274;51.992;8.518;2022-11-03T15:28:30;13.00;69.40
10453;DHT22;5274;51.992;8.518;2022-11-03T15:30:56;13.00;75.70
10453;DHT22;5274;51.992;8.518;2022-11-03T15:33:21;12.90;88.00
10453;DHT22;5274;51.992;8.518;2022-11-03T15:35:47;12.90;91.70
10453;DHT22;5274;51.992;8.518;2022-11-03T15:38:12;12.90;95.50
10453;DHT22;5274;51.992;8.518;2022-11-03T15:40:38;12.90;90.50
10453;DHT22;5274;51.992;8.518;2022-11-03T15:43:04;12.90;88.70
10453;DHT22;5274;51.992;8.518;2022-11-03T15:45:31;12.80;74.40
10453;DHT22;5274;51.992;8.518;2022-11-03T15:47:57;12.80;79.60
10453;DHT22;5274;51.992;8.518;2022-11-03T15:50:22;12.80;77.90
10453;DHT22;5274;51.992;8.518;2022-11-03T15:52:48;12.80;88.70
10453;DHT22;5274;51.992;8.518;2022-11-03T15:55:13;12.80;85.80
10453;DHT22;5274;51.992;8.518;2022-11-03T15:57:39;12.70;87.70
10453;DHT22;5274;51.992;8.518;2022-11-03T16:00:05;12.70;91.60
10453;DHT22;5274;51.992;8.518;2022-11-03T16:02:31;12.70;73.60
10453;DHT22;5274;51.992;8.518;2022-11-03T16:04:57;12.70;72.60
10453;DHT22;5274;51.992;8.518;2022-11-03T16:07:22;12.70;79.60
10453;DHT22;5274;51.992;8.518;2022-11-03T16:09:48;12.70;85.60
10453;DHT22;5274;51.992;8.518;2022-11-03T16:12:14;12.60;91.40
10453;DHT22;5274;51.992;8.518;2022-11-03T16:14:39;12.70;89.60
10453;DHT22;5274;51.992;8.518;2022-11-03T16:17:05;12.60;91.00
10453;DHT22;5274;51.992;8.518;2022-11-03T16:19:31;12.60;89.20
10453;DHT22;5274;51.992;8.518;2022-11-03T16:21:57;12.60;81.10
10453;DHT22;5274;51.992;8.518;2022-11-03T16:24:22;12.60;80.30
10453;DHT22;5274;51.992;8.518;2022-11-03T16:26:48;12.60;89.90
10453;DHT22;5274;51.992;8.518;2022-11-03T16:29:15;12.60;93.10
10453;DHT22;5274;51.992;8.518;2022-11-03T16:31:41;12.50;93.30
10453;DHT22;5274;51.992;8.518;2022-11-03T16:34:06;12.50;98.40
10453;DHT22;5274;51.992;8.518;2022-11-03T16:36:32;12.40;99.90
10453;DHT22;5274;51.992;8.518;2022-11-03T16:38:57;12.40;99.90
10453;DHT22;5274;51.992;8.518;2022-11-03T16:41:23;12.40;99.90
10453;DHT22;5274;51.992;8.518;2022-11-03T16:43:48;12.40;99.90
10453;DHT22;5274;51.992;8.518;2022-11-03T16:46:14;12.40;99.90
10453;DHT22;5274;51.992;8.518;2022-11-03T16:48:40;12.30;99.90
10453;DHT22;5274;51.992;8.518;2022-11-03T16:51:06;12.30;99.90
10453;DHT22;5274;51.992;8.518;2022-11-03T16:53:31;12.30;99.90
10453;DHT22;5274;51.992;8.518;2022-11-03T16:55:57;12.40;99.90
10453;DHT22;5274;51.992;8.518;2022-11-03T16:58:22;12.40;99.90